createdAt,value
2023-11-01T00:00:25.496Z,1.20
2023-11-01T00:01:25.474Z,1.20
2023-11-01T00:02:25.487Z,1.10
2023-11-01T00:03:25.505Z,1.20
2023-11-01T00:04:25.479Z,1.20
2023-11-01T00:05:25.512Z,1.20
2023-11-01T00:06:25.400Z,1.10
2023-11-01T00:07:25.383Z,1.10
2023-11-01T00:08:25.439Z,1.10
2023-11-01T00:09:25.368Z,1.30
2023-11-01T00:10:25.445Z,1.20
2023-11-01T00:11:25.362Z,1.30
2023-11-01T00:12:25.315Z,1.20
2023-11-01T00:13:25.315Z,1.10
2023-11-01T00:14:25.350Z,1.30
2023-11-01T00:15:25.294Z,1.20
2023-11-01T00:16:25.345Z,1.10
2023-11-01T00:17:25.439Z,1.30
2023-11-01T00:18:25.306Z,1.40
2023-11-01T00:19:25.266Z,1.40
2023-11-01T00:20:25.278Z,1.70
2023-11-01T00:21:25.245Z,1.80
2023-11-01T00:22:25.244Z,2.30
2023-11-01T00:23:25.256Z,2.70
2023-11-01T00:24:25.207Z,3.60
2023-11-01T00:25:25.192Z,5.80
2023-11-01T00:26:25.190Z,5.00
2023-11-01T00:27:25.167Z,3.50
2023-11-01T00:28:25.184Z,5.20
2023-11-01T00:29:25.164Z,5.50
2023-11-01T00:30:25.171Z,5.40
2023-11-01T00:31:25.125Z,5.90
2023-11-01T00:32:25.224Z,5.60
2023-11-01T00:33:25.198Z,5.50
2023-11-01T00:34:25.129Z,5.60
2023-11-01T00:35:25.107Z,5.40
2023-11-01T00:36:25.083Z,5.50
2023-11-01T00:37:25.130Z,5.30
2023-11-01T00:38:25.328Z,5.10
2023-11-01T00:39:25.045Z,4.20
2023-11-01T00:40:25.093Z,4.40
2023-11-01T00:41:25.047Z,4.20
2023-11-01T00:42:25.025Z,3.50
2023-11-01T00:43:25.001Z,3.20
2023-11-01T00:44:25.012Z,2.90
2023-11-01T00:45:24.990Z,2.40
2023-11-01T00:46:25.028Z,2.30
2023-11-01T00:47:25.072Z,2.20
2023-11-01T00:48:24.976Z,2.30
2023-11-01T00:49:24.966Z,2.40
2023-11-01T00:50:24.942Z,1.90
2023-11-01T00:51:24.936Z,1.70
2023-11-01T00:52:24.971Z,1.50
2023-11-01T00:53:24.907Z,1.70
2023-11-01T00:54:24.899Z,1.70
2023-11-01T00:55:24.877Z,1.40
2023-11-01T00:56:24.870Z,1.40
2023-11-01T00:57:24.876Z,1.20
2023-11-01T00:58:24.879Z,1.70
2023-11-01T00:59:24.890Z,1.50
2023-11-01T01:00:24.838Z,1.30
2023-11-01T01:01:24.857Z,1.50
2023-11-01T01:02:24.861Z,1.30
2023-11-01T01:03:24.947Z,1.30
2023-11-01T01:04:24.840Z,1.30
2023-11-01T01:05:24.810Z,1.30
2023-11-01T01:06:24.770Z,1.40
2023-11-01T01:07:24.750Z,1.40
2023-11-01T01:08:24.866Z,1.40
2023-11-01T01:09:24.748Z,1.30
2023-11-01T01:10:24.753Z,1.30
2023-11-01T01:11:24.745Z,1.30
2023-11-01T01:12:24.711Z,1.30
2023-11-01T01:13:24.716Z,1.50
2023-11-01T01:14:24.698Z,1.30
2023-11-01T01:15:24.694Z,1.60
2023-11-01T01:16:24.711Z,1.40
2023-11-01T01:17:24.775Z,1.40
2023-11-01T01:18:24.665Z,1.30
2023-11-01T01:19:24.668Z,1.30
2023-11-01T01:20:24.656Z,1.30
2023-11-01T01:21:24.600Z,1.50
2023-11-01T01:22:24.621Z,1.40
2023-11-01T01:23:24.604Z,1.30
2023-11-01T01:24:24.576Z,1.50
2023-11-01T01:25:24.588Z,1.40
2023-11-01T01:26:24.603Z,1.20
2023-11-01T01:27:24.555Z,1.30
2023-11-01T01:28:24.564Z,1.30
2023-11-01T01:29:24.589Z,1.30
2023-11-01T01:30:24.515Z,1.50
2023-11-01T01:31:24.542Z,1.60
2023-11-01T01:32:24.536Z,1.30
2023-11-01T01:33:24.532Z,1.30
2023-11-01T01:34:24.503Z,1.40
2023-11-01T01:35:24.466Z,1.40
2023-11-01T01:36:24.443Z,1.20
2023-11-01T01:37:24.445Z,1.40
2023-11-01T01:38:24.455Z,1.20
2023-11-01T01:39:24.456Z,1.20
2023-11-01T01:40:24.448Z,1.40
2023-11-01T01:41:24.424Z,1.20
2023-11-01T01:42:24.382Z,1.30
2023-11-01T01:43:24.503Z,1.50
2023-11-01T01:44:24.404Z,1.40
2023-11-01T01:45:24.362Z,1.50
2023-11-01T01:46:24.376Z,1.30
2023-11-01T01:47:24.380Z,1.30
2023-11-01T01:48:24.416Z,1.50
2023-11-01T01:49:32.730Z,1.40
2023-11-01T01:50:24.377Z,1.30
2023-11-01T01:51:24.297Z,1.50
2023-11-01T01:52:24.346Z,1.40
2023-11-01T01:53:24.286Z,1.30
2023-11-01T01:54:24.287Z,1.40
2023-11-01T01:55:24.253Z,1.40
2023-11-01T01:56:24.234Z,1.30
2023-11-01T01:57:24.229Z,1.50
2023-11-01T01:58:24.244Z,1.50
2023-11-01T01:59:24.254Z,1.40
2023-11-01T02:00:24.195Z,1.20
2023-11-01T02:01:34.813Z,1.30
2023-11-01T02:02:24.221Z,1.30
2023-11-01T02:03:24.257Z,1.50
2023-11-01T02:04:25.996Z,1.70
2023-11-01T02:05:24.159Z,1.50
2023-11-01T02:06:24.166Z,1.40
2023-11-01T02:07:24.164Z,1.40
2023-11-01T02:08:24.175Z,1.20
2023-11-01T02:09:24.150Z,1.50
2023-11-01T02:10:24.139Z,1.30
2023-11-01T02:11:24.089Z,1.40
2023-11-01T02:12:24.076Z,1.70
2023-11-01T02:13:24.067Z,1.50
2023-11-01T02:14:24.115Z,1.70
2023-11-01T02:15:24.055Z,1.70
2023-11-01T02:16:24.075Z,1.90
2023-11-01T02:17:24.121Z,2.40
2023-11-01T02:18:24.009Z,3.60
2023-11-01T02:19:24.009Z,3.20
2023-11-01T02:20:24.028Z,3.80
2023-11-01T02:21:23.985Z,4.10
2023-11-01T02:22:24.021Z,4.50
2023-11-01T02:23:23.972Z,6.00
2023-11-01T02:24:23.959Z,7.60
2023-11-01T02:25:23.941Z,8.70
2023-11-01T02:26:23.974Z,9.20
2023-11-01T02:27:23.924Z,10.70
2023-11-01T02:28:23.968Z,10.60
2023-11-01T02:29:23.973Z,11.30
2023-11-01T02:30:23.881Z,10.50
2023-11-01T02:31:23.915Z,10.40
2023-11-01T02:32:23.920Z,9.30
2023-11-01T02:33:23.855Z,8.80
2023-11-01T02:34:23.886Z,8.50
2023-11-01T02:35:23.864Z,7.50
2023-11-01T02:36:23.841Z,6.70
2023-11-01T02:37:23.848Z,5.80
2023-11-01T02:38:23.883Z,4.90
2023-11-01T02:39:23.804Z,4.50
2023-11-01T02:40:23.810Z,3.90
2023-11-01T02:41:23.806Z,4.10
2023-11-01T02:42:23.769Z,3.70
2023-11-01T02:43:23.746Z,4.00
2023-11-01T02:44:23.766Z,4.40
2023-11-01T02:45:23.729Z,4.10
2023-11-01T02:46:23.761Z,4.10
2023-11-01T02:47:23.808Z,3.80
2023-11-01T02:48:23.695Z,4.10
2023-11-01T02:49:23.710Z,4.00
2023-11-01T02:50:23.750Z,3.80
2023-11-01T02:51:23.665Z,3.80
2023-11-01T02:52:23.694Z,3.70
2023-11-01T02:53:23.696Z,4.00
2023-11-01T02:54:23.652Z,3.00
2023-11-01T02:55:23.629Z,3.30
2023-11-01T02:56:23.624Z,3.40
2023-11-01T02:57:23.620Z,3.20
2023-11-01T02:58:23.641Z,3.20
2023-11-01T02:59:23.618Z,3.10
2023-11-01T03:00:23.585Z,3.20
2023-11-01T03:01:23.612Z,3.10
2023-11-01T03:02:23.601Z,3.10
2023-11-01T03:03:23.639Z,3.10
2023-11-01T03:04:23.558Z,3.00
2023-11-01T03:05:23.528Z,2.90
2023-11-01T03:06:23.521Z,3.20
2023-11-01T03:07:23.510Z,3.40
2023-11-01T03:08:23.529Z,5.10
2023-11-01T03:09:23.495Z,5.50
2023-11-01T03:10:23.522Z,7.20
2023-11-01T03:11:23.478Z,8.20
2023-11-01T03:12:23.450Z,8.50
2023-11-01T03:13:23.457Z,8.50
2023-11-01T03:14:23.449Z,8.80
2023-11-01T03:15:23.424Z,9.30
2023-11-01T03:16:23.475Z,9.30
2023-11-01T03:17:23.573Z,8.80
2023-11-01T03:18:23.389Z,7.80
2023-11-01T03:19:23.397Z,7.90
2023-11-01T03:20:23.398Z,6.00
2023-11-01T03:21:23.368Z,5.00
2023-11-01T03:22:23.363Z,4.10
2023-11-01T03:23:23.333Z,3.90
2023-11-01T03:24:23.331Z,3.80
2023-11-01T03:25:23.333Z,3.40
2023-11-01T03:26:23.347Z,2.90
2023-11-01T03:27:23.310Z,2.80
2023-11-01T03:28:23.307Z,2.50
2023-11-01T03:29:23.297Z,2.30
2023-11-01T03:30:23.261Z,1.80
2023-11-01T03:31:23.295Z,2.10
2023-11-01T03:32:23.288Z,1.80
2023-11-01T03:33:23.255Z,1.70
2023-11-01T03:34:23.251Z,1.70
2023-11-01T03:35:23.219Z,1.90
2023-11-01T03:36:23.201Z,1.60
2023-11-01T03:37:23.193Z,1.70
2023-11-01T03:38:23.188Z,1.80
2023-11-01T03:39:23.194Z,1.70
2023-11-01T03:40:23.193Z,1.60
2023-11-01T03:41:23.176Z,1.80
2023-11-01T03:42:23.138Z,1.80
2023-11-01T03:43:23.124Z,1.70
2023-11-01T03:44:23.143Z,1.70
2023-11-01T03:45:23.097Z,1.80
2023-11-01T03:46:23.118Z,1.80
2023-11-01T03:47:23.160Z,2.10
2023-11-01T03:48:23.144Z,2.00
2023-11-01T03:49:23.093Z,1.90
2023-11-01T03:50:23.136Z,1.70
2023-11-01T03:51:23.088Z,1.80
2023-11-01T03:52:23.107Z,2.00
2023-11-01T03:53:23.054Z,2.00
2023-11-01T03:54:23.020Z,2.20
2023-11-01T03:55:23.005Z,2.40
2023-11-01T03:56:23.019Z,2.60
2023-11-01T03:57:23.000Z,2.90
2023-11-01T03:58:22.999Z,3.30
2023-11-01T03:59:23.048Z,3.10
2023-11-01T04:00:23.203Z,2.80
2023-11-01T04:01:22.957Z,2.60
2023-11-01T04:02:22.956Z,2.30
2023-11-01T04:03:22.948Z,2.50
2023-11-01T04:04:23.063Z,2.90
2023-11-01T04:05:22.915Z,2.10
2023-11-01T04:06:22.934Z,1.90
2023-11-01T04:07:22.870Z,2.10
2023-11-01T04:08:22.911Z,1.90
2023-11-01T04:09:22.857Z,2.00
2023-11-01T04:10:22.889Z,1.80
2023-11-01T04:11:22.840Z,2.00
2023-11-01T04:12:22.841Z,2.00
2023-11-01T04:13:22.869Z,1.80
2023-11-01T04:14:22.865Z,1.80
2023-11-01T04:15:22.820Z,1.80
2023-11-01T04:16:22.855Z,1.70
2023-11-01T04:17:22.804Z,1.90
2023-11-01T04:18:22.814Z,1.70
2023-11-01T04:19:22.795Z,1.60
2023-11-01T04:20:22.803Z,1.60
2023-11-01T04:21:22.746Z,1.50
2023-11-01T04:22:22.812Z,1.50
2023-11-01T04:23:22.776Z,1.40
2023-11-01T04:24:22.698Z,1.70
2023-11-01T04:25:22.732Z,1.50
2023-11-01T04:26:22.737Z,1.70
2023-11-01T04:27:22.680Z,1.60
2023-11-01T04:28:22.672Z,1.50
2023-11-01T04:29:22.671Z,1.60
2023-11-01T04:30:22.680Z,1.60
2023-11-01T04:31:22.638Z,1.70
2023-11-01T04:32:22.633Z,1.70
2023-11-01T04:33:22.616Z,1.70
2023-11-01T04:34:22.638Z,1.70
2023-11-01T04:35:22.591Z,1.80
2023-11-01T04:36:22.577Z,1.70
2023-11-01T04:37:22.560Z,1.70
2023-11-01T04:38:22.563Z,1.80
2023-11-01T04:39:22.550Z,1.70
2023-11-01T04:40:22.549Z,1.80
2023-11-01T04:41:22.581Z,1.70
2023-11-01T04:42:22.530Z,1.80
2023-11-01T04:43:22.497Z,1.90
2023-11-01T04:44:22.524Z,1.80
2023-11-01T04:45:22.472Z,1.80
2023-11-01T04:46:22.563Z,2.00
2023-11-01T04:47:22.517Z,1.80
2023-11-01T04:48:22.493Z,2.00
2023-11-01T04:49:22.474Z,1.80
2023-11-01T04:50:22.473Z,1.80
2023-11-01T04:51:22.429Z,1.70
2023-11-01T04:52:22.456Z,1.90
2023-11-01T04:53:22.432Z,1.80
2023-11-01T04:54:22.387Z,1.90
2023-11-01T04:55:22.375Z,2.00
2023-11-01T04:56:22.413Z,1.90
2023-11-01T04:57:22.363Z,1.80
2023-11-01T04:58:22.380Z,2.10
2023-11-01T04:59:22.408Z,2.00
2023-11-01T05:00:22.335Z,2.10
2023-11-01T05:01:22.372Z,1.80
2023-11-01T05:02:22.319Z,2.00
2023-11-01T05:03:22.321Z,2.00
2023-11-01T05:04:22.326Z,1.90
2023-11-01T05:05:22.277Z,1.90
2023-11-01T05:06:22.262Z,3.20
2023-11-01T05:07:22.258Z,2.60
2023-11-01T05:08:22.300Z,2.90
2023-11-01T05:09:22.241Z,3.10
2023-11-01T05:10:22.254Z,4.30
2023-11-01T05:11:22.230Z,3.60
2023-11-01T05:12:22.216Z,3.00
2023-11-01T05:13:22.224Z,3.40
2023-11-01T05:14:22.210Z,3.50
2023-11-01T05:15:22.158Z,3.70
2023-11-01T05:16:22.225Z,3.40
2023-11-01T05:17:22.177Z,4.00
2023-11-01T05:18:22.169Z,4.10
2023-11-01T05:19:22.130Z,4.10
2023-11-01T05:20:22.136Z,5.10
2023-11-01T05:21:22.110Z,4.80
2023-11-01T05:23:32.046Z,5.40
2023-11-01T05:24:33.029Z,5.50
2023-11-01T05:25:32.988Z,6.20
2023-11-01T05:26:33.003Z,6.10
2023-11-01T05:27:33.073Z,6.20
2023-11-01T05:28:32.974Z,7.20
2023-11-01T05:29:33.024Z,8.20
2023-11-01T05:30:33.008Z,8.40
2023-11-01T05:31:32.927Z,8.40
2023-11-01T05:32:32.975Z,8.30
2023-11-01T05:33:32.953Z,8.80
2023-11-01T05:34:32.893Z,8.60
2023-11-01T05:35:32.931Z,8.10
2023-11-01T05:36:32.867Z,8.40
2023-11-01T05:37:32.879Z,8.80
2023-11-01T05:38:32.887Z,8.70
2023-11-01T05:39:32.854Z,8.90
2023-11-01T05:40:32.838Z,9.80
2023-11-01T05:41:32.910Z,10.20
2023-11-01T05:42:32.828Z,10.90
2023-11-01T05:43:32.782Z,11.70
2023-11-01T05:44:32.810Z,12.40
2023-11-01T05:45:32.758Z,12.70
2023-11-01T05:46:32.843Z,13.10
2023-11-01T05:47:32.829Z,14.00
2023-11-01T05:48:32.783Z,13.20
2023-11-01T05:49:32.757Z,12.80
2023-11-01T05:50:32.747Z,12.10
2023-11-01T05:51:32.719Z,11.70
2023-11-01T05:52:32.692Z,11.60
2023-11-01T05:53:32.776Z,11.00
2023-11-01T05:54:32.678Z,11.30
2023-11-01T05:55:42.293Z,9.50
2023-11-01T05:56:32.693Z,9.20
2023-11-01T05:57:32.646Z,9.40
2023-11-01T05:58:32.642Z,8.70
2023-11-01T05:59:32.704Z,6.50
2023-11-01T06:00:32.618Z,6.40
2023-11-01T06:01:32.613Z,6.00
2023-11-01T06:02:32.695Z,4.90
2023-11-01T06:03:32.873Z,5.70
2023-11-01T06:04:32.622Z,6.50
2023-11-01T06:05:32.665Z,5.40
2023-11-01T06:06:32.555Z,5.30
2023-11-01T06:07:32.536Z,4.60
2023-11-01T06:08:32.574Z,4.00
2023-11-01T06:09:32.519Z,3.70
2023-11-01T06:10:32.539Z,3.60
2023-11-01T06:11:32.536Z,2.50
2023-11-01T06:12:32.480Z,2.40
2023-11-01T06:13:32.495Z,2.30
2023-11-01T06:14:32.522Z,2.40
2023-11-01T06:15:32.449Z,1.90
2023-11-01T06:16:32.478Z,1.90
2023-11-01T06:17:32.546Z,1.70
2023-11-01T06:18:32.420Z,1.90
2023-11-01T06:19:32.411Z,1.70
2023-11-01T06:20:32.434Z,1.70
2023-11-01T06:21:32.390Z,1.80
2023-11-01T06:22:32.379Z,1.60
2023-11-01T06:23:32.471Z,1.60
2023-11-01T06:24:32.367Z,1.80
2023-11-01T06:25:32.385Z,1.70
2023-11-01T06:26:32.369Z,1.90
2023-11-01T06:27:32.334Z,1.80
2023-11-01T06:28:32.317Z,1.80
2023-11-01T06:29:32.424Z,1.70
2023-11-01T06:30:32.298Z,1.80
2023-11-01T06:31:32.293Z,1.40
2023-11-01T06:32:32.449Z,1.80
2023-11-01T06:33:32.431Z,1.60
2023-11-01T06:34:32.318Z,1.70
2023-11-01T06:35:32.422Z,1.50
2023-11-01T06:36:32.284Z,1.70
2023-11-01T06:37:32.300Z,1.80
2023-11-01T06:38:32.339Z,1.70
2023-11-01T06:39:32.215Z,1.50
2023-11-01T06:40:32.180Z,1.70
2023-11-01T06:41:32.356Z,1.80
2023-11-01T06:42:32.162Z,1.70
2023-11-01T06:43:32.155Z,1.60
2023-11-01T06:44:32.181Z,1.80
2023-11-01T06:45:32.134Z,1.60
2023-11-01T06:46:32.153Z,1.90
2023-11-01T06:47:32.260Z,1.50
2023-11-01T06:48:32.188Z,1.90
2023-11-01T06:49:32.562Z,1.70
2023-11-01T06:50:32.124Z,1.80
2023-11-01T06:51:32.094Z,1.90
2023-11-01T06:52:32.069Z,1.80
2023-11-01T06:53:32.114Z,1.90
2023-11-01T06:54:32.040Z,1.50
2023-11-01T06:55:32.029Z,1.80
2023-11-01T06:56:32.051Z,1.60
2023-11-01T06:57:32.196Z,1.70
2023-11-01T06:58:31.992Z,1.80
2023-11-01T06:59:32.074Z,1.70
2023-11-01T07:00:31.985Z,1.60
2023-11-01T07:01:31.961Z,1.70
2023-11-01T07:02:31.981Z,1.70
2023-11-01T07:03:32.023Z,1.80
2023-11-01T07:04:31.960Z,1.60
2023-11-01T07:05:31.973Z,1.50
2023-11-01T07:06:31.904Z,1.60
2023-11-01T07:07:31.891Z,1.50
2023-11-01T07:08:31.915Z,1.60
2023-11-01T07:09:31.897Z,1.60
2023-11-01T07:10:31.877Z,1.60
2023-11-01T07:11:31.928Z,1.80
2023-11-01T07:12:31.849Z,1.60
2023-11-01T07:13:31.833Z,1.50
2023-11-01T07:14:31.829Z,1.50
2023-11-01T07:15:31.827Z,1.70
2023-11-01T07:16:31.818Z,1.50
2023-11-01T07:17:31.927Z,1.50
2023-11-01T07:18:31.843Z,1.60
2023-11-01T07:19:31.779Z,1.50
2023-11-01T07:20:31.777Z,1.30
2023-11-01T07:21:31.755Z,1.40
2023-11-01T07:22:31.764Z,1.30
2023-11-01T07:23:31.783Z,1.40
2023-11-01T07:24:31.773Z,1.50
2023-11-01T07:25:31.698Z,1.40
2023-11-01T07:26:31.754Z,1.40
2023-11-01T07:27:31.685Z,1.60
2023-11-01T07:28:31.672Z,1.40
2023-11-01T07:29:31.738Z,1.40
2023-11-01T07:30:31.680Z,1.50
2023-11-01T07:31:31.700Z,1.40
2023-11-01T07:32:31.707Z,1.40
2023-11-01T07:33:31.737Z,1.40
2023-11-01T07:34:31.604Z,1.30
2023-11-01T07:35:31.669Z,1.30
2023-11-01T07:36:31.581Z,1.30
2023-11-01T07:37:31.573Z,1.40
2023-11-01T07:38:31.628Z,1.40
2023-11-01T07:39:31.558Z,1.20
2023-11-01T07:40:31.563Z,1.30
2023-11-01T07:41:31.633Z,1.30
2023-11-01T07:42:31.532Z,1.40
2023-11-01T07:43:31.531Z,1.50
2023-11-01T07:44:31.545Z,1.50
2023-11-01T07:45:31.496Z,1.30
2023-11-01T07:46:31.485Z,1.30
2023-11-01T07:47:31.554Z,1.50
2023-11-01T07:48:31.520Z,1.70
2023-11-01T07:49:31.489Z,1.30
2023-11-01T07:50:31.489Z,1.40
2023-11-01T07:51:31.439Z,1.20
2023-11-01T07:52:31.436Z,1.30
2023-11-01T07:53:31.480Z,1.30
2023-11-01T07:54:31.397Z,1.40
2023-11-01T07:55:31.409Z,1.50
2023-11-01T07:56:31.429Z,1.30
2023-11-01T07:57:31.373Z,1.40
2023-11-01T07:58:31.351Z,1.20
2023-11-01T07:59:31.474Z,1.30
2023-11-01T08:00:31.347Z,1.20
2023-11-01T08:01:31.337Z,1.20
2023-11-01T08:02:31.403Z,1.20
2023-11-01T08:03:31.440Z,1.10
2023-11-01T08:04:31.445Z,1.30
2023-11-01T08:05:31.349Z,1.20
2023-11-01T08:06:31.278Z,1.20
2023-11-01T08:07:31.285Z,1.20
2023-11-01T08:08:31.265Z,1.20
2023-11-01T08:09:31.241Z,1.10
2023-11-01T08:10:31.256Z,1.10
2023-11-01T08:11:31.246Z,1.10
2023-11-01T08:12:31.209Z,1.10
2023-11-01T08:13:31.194Z,1.20
2023-11-01T08:14:31.243Z,1.20
2023-11-01T08:15:31.171Z,1.00
2023-11-01T08:16:31.191Z,1.10
2023-11-01T08:17:31.227Z,1.10
2023-11-01T08:18:31.146Z,1.00
2023-11-01T08:19:31.142Z,1.10
2023-11-01T08:20:31.208Z,1.10
2023-11-01T08:21:31.118Z,1.10
2023-11-01T08:22:31.118Z,1.10
2023-11-01T08:23:31.153Z,1.10
2023-11-01T08:24:31.090Z,1.10
2023-11-01T08:25:31.070Z,1.10
2023-11-01T08:26:31.091Z,1.00
2023-11-01T08:27:31.150Z,1.30
2023-11-01T08:28:31.033Z,1.10
2023-11-01T08:29:31.123Z,1.10
2023-11-01T08:30:31.022Z,0.90
2023-11-01T08:31:31.056Z,0.90
2023-11-01T08:32:31.097Z,1.00
2023-11-01T08:33:31.106Z,1.00
2023-11-01T08:34:30.980Z,1.00
2023-11-01T08:35:31.023Z,0.90
2023-11-01T08:36:31.376Z,1.00
2023-11-01T08:37:30.970Z,1.00
2023-11-01T08:38:30.961Z,0.90
2023-11-01T08:39:30.931Z,1.00
2023-11-01T08:40:30.908Z,1.20
2023-11-01T08:41:30.941Z,0.90
2023-11-01T08:42:30.890Z,0.90
2023-11-01T08:43:30.881Z,0.90
2023-11-01T08:44:32.064Z,1.00
2023-11-01T08:45:30.868Z,1.10
2023-11-01T08:46:30.920Z,0.90
2023-11-01T08:47:30.876Z,1.00
2023-11-01T08:48:30.885Z,1.00
2023-11-01T08:49:30.826Z,1.10
2023-11-01T08:50:30.811Z,1.10
2023-11-01T08:51:30.850Z,1.00
2023-11-01T08:52:30.788Z,0.90
2023-11-01T08:53:32.947Z,1.00
2023-11-01T08:54:30.809Z,1.00
2023-11-01T08:55:30.759Z,1.00
2023-11-01T08:56:30.807Z,0.90
2023-11-01T08:57:30.773Z,0.80
2023-11-01T08:58:30.746Z,0.90
2023-11-01T08:59:30.785Z,0.80
2023-11-01T09:00:39.404Z,1.00
2023-11-01T09:01:30.742Z,0.90
2023-11-01T09:02:30.775Z,0.90
2023-11-01T09:03:31.054Z,1.00
2023-11-01T09:04:30.688Z,0.80
2023-11-01T09:05:30.756Z,1.00
2023-11-01T09:06:30.653Z,0.90
2023-11-01T09:07:30.629Z,0.90
2023-11-01T09:08:30.650Z,1.00
2023-11-01T09:09:30.622Z,0.90
2023-11-01T09:10:30.600Z,1.00
2023-11-01T09:11:30.652Z,0.80
2023-11-01T09:12:30.595Z,0.90
2023-11-01T09:13:30.607Z,0.90
2023-11-01T09:14:30.568Z,0.80
2023-11-01T09:15:30.540Z,0.90
2023-11-01T09:16:30.561Z,0.80
2023-11-01T09:17:30.603Z,0.70
2023-11-01T09:18:30.623Z,0.70
2023-11-01T09:19:30.509Z,0.80
2023-11-01T09:20:30.529Z,0.80
2023-11-01T09:21:30.489Z,0.80
2023-11-01T09:22:30.479Z,0.80
2023-11-01T09:23:30.495Z,0.90
2023-11-01T09:24:30.498Z,0.80
2023-11-01T09:25:30.442Z,0.80
2023-11-01T09:26:30.461Z,0.80
2023-11-01T09:27:30.452Z,0.90
2023-11-01T09:28:30.455Z,0.80
2023-11-01T09:29:30.646Z,0.70
2023-11-01T09:30:30.385Z,0.70
2023-11-01T09:31:30.457Z,0.70
2023-11-01T09:32:30.497Z,0.70
2023-11-01T09:33:30.575Z,0.70
2023-11-01T09:34:30.392Z,0.80
2023-11-01T09:35:30.462Z,0.80
2023-11-01T09:36:30.319Z,0.80
2023-11-01T09:37:30.310Z,0.80
2023-11-01T09:38:30.326Z,0.80
2023-11-01T09:39:30.305Z,0.70
2023-11-01T09:40:30.306Z,0.80
2023-11-01T09:41:30.362Z,0.70
2023-11-01T09:42:30.286Z,0.90
2023-11-01T09:43:30.251Z,0.60
2023-11-01T09:44:30.278Z,0.70
2023-11-01T09:45:30.244Z,0.80
2023-11-01T09:46:30.236Z,0.80
2023-11-01T09:47:30.308Z,0.70
2023-11-01T09:48:30.294Z,0.80
2023-11-01T09:49:30.250Z,0.70
2023-11-01T09:50:30.216Z,0.80
2023-11-01T09:51:30.170Z,0.80
2023-11-01T09:52:31.177Z,0.80
2023-11-01T09:53:30.189Z,0.70
2023-11-01T09:54:30.159Z,0.80
2023-11-01T09:55:30.107Z,0.70
2023-11-01T09:56:30.135Z,0.70
2023-11-01T09:57:30.129Z,0.70
2023-11-01T09:58:30.093Z,0.70
2023-11-01T09:59:30.183Z,0.70
2023-11-01T10:00:30.060Z,0.80
2023-11-01T10:01:30.049Z,0.80
2023-11-01T10:02:30.052Z,0.80
2023-11-01T10:03:30.068Z,0.80
2023-11-01T10:04:30.062Z,0.80
2023-11-01T10:05:30.056Z,0.70
2023-11-01T10:06:29.994Z,0.70
2023-11-01T10:07:29.967Z,0.70
2023-11-01T10:08:29.973Z,0.80
2023-11-01T10:09:29.989Z,0.80
2023-11-01T10:10:29.944Z,0.80
2023-11-01T10:11:31.225Z,0.80
2023-11-01T10:12:29.928Z,0.80
2023-11-01T10:13:30.038Z,0.80
2023-11-01T10:14:29.940Z,0.90
2023-11-01T10:15:29.926Z,0.90
2023-11-01T10:16:29.878Z,0.80
2023-11-01T10:17:29.986Z,0.90
2023-11-01T10:18:29.924Z,0.90
2023-11-01T10:19:29.876Z,0.80
2023-11-01T10:20:29.916Z,0.90
2023-11-01T10:21:29.830Z,0.80
2023-11-01T10:22:29.834Z,0.90
2023-11-01T10:23:29.873Z,1.00
2023-11-01T10:24:29.805Z,1.00
2023-11-01T10:25:29.828Z,0.80
2023-11-01T10:26:29.899Z,0.70
2023-11-01T10:27:29.758Z,0.70
2023-11-01T10:28:29.767Z,0.80
2023-11-01T10:29:29.815Z,0.80
2023-11-01T10:30:29.734Z,0.80
2023-11-01T10:31:29.743Z,0.90
2023-11-01T10:32:29.783Z,0.80
2023-11-01T10:33:29.916Z,0.90
2023-11-01T10:34:29.697Z,0.90
2023-11-01T10:35:29.754Z,0.80
2023-11-01T10:36:29.697Z,0.80
2023-11-01T10:37:29.655Z,0.80
2023-11-01T10:38:29.772Z,0.80
2023-11-01T10:39:29.649Z,0.70
2023-11-01T10:40:29.616Z,0.90
2023-11-01T10:41:29.728Z,0.80
2023-11-01T10:42:29.616Z,0.80
2023-11-01T10:43:29.637Z,0.90
2023-11-01T10:44:31.404Z,0.80
2023-11-01T10:45:29.701Z,1.00
2023-11-01T10:46:29.558Z,0.90
2023-11-01T10:47:29.603Z,0.90
2023-11-01T10:48:29.637Z,0.90
2023-11-01T10:49:29.565Z,0.90
2023-11-01T10:50:29.573Z,0.80
2023-11-01T10:51:29.534Z,1.00
2023-11-01T10:52:29.512Z,1.30
2023-11-01T10:53:29.581Z,1.10
2023-11-01T10:54:29.550Z,1.20
2023-11-01T10:55:29.539Z,0.90
2023-11-01T10:56:29.473Z,0.90
2023-11-01T10:57:29.451Z,0.80
2023-11-01T10:58:29.440Z,0.80
2023-11-01T10:59:29.455Z,0.70
2023-11-01T11:00:29.431Z,0.90
2023-11-01T11:01:29.398Z,0.90
2023-11-01T11:02:29.505Z,0.90
2023-11-01T11:03:29.501Z,0.90
2023-11-01T11:04:29.810Z,0.90
2023-11-01T11:05:29.472Z,0.90
2023-11-01T11:06:29.336Z,0.90
2023-11-01T11:07:29.341Z,1.00
2023-11-01T11:08:29.380Z,0.80
2023-11-01T11:09:29.328Z,0.70
2023-11-01T11:10:29.368Z,0.90
2023-11-01T11:11:29.362Z,0.90
2023-11-01T11:12:29.285Z,0.80
2023-11-01T11:13:29.280Z,0.90
2023-11-01T11:14:29.314Z,0.90
2023-11-01T11:15:29.250Z,0.80
2023-11-01T11:16:29.263Z,0.90
2023-11-01T11:17:29.320Z,0.80
2023-11-01T11:18:29.230Z,0.90
2023-11-01T11:19:29.221Z,0.90
2023-11-01T11:20:29.214Z,0.90
2023-11-01T11:21:29.207Z,0.80
2023-11-01T11:22:29.174Z,0.90
2023-11-01T11:23:29.223Z,1.10
2023-11-01T11:24:29.212Z,1.20
2023-11-01T11:25:29.146Z,0.90
2023-11-01T11:26:29.179Z,1.00
2023-11-01T11:27:29.130Z,0.90
2023-11-01T11:28:29.102Z,0.90
2023-11-01T11:29:29.204Z,0.90
2023-11-01T11:30:29.142Z,0.90
2023-11-01T11:31:29.097Z,1.00
2023-11-01T11:32:29.116Z,0.70
2023-11-01T11:33:29.142Z,0.90
2023-11-01T11:34:29.054Z,0.90
2023-11-01T11:35:29.181Z,0.90
2023-11-01T11:36:29.037Z,1.00
2023-11-01T11:37:29.033Z,1.00
2023-11-01T11:38:29.047Z,1.10
2023-11-01T11:39:29.001Z,1.00
2023-11-01T11:40:28.988Z,1.00
2023-11-01T11:41:29.282Z,0.90
2023-11-01T11:42:28.969Z,1.10
2023-11-01T11:43:28.953Z,1.00
2023-11-01T11:44:29.001Z,1.10
2023-11-01T11:45:28.939Z,1.00
2023-11-01T11:46:28.927Z,0.90
2023-11-01T11:47:29.008Z,1.00
2023-11-01T11:48:28.993Z,1.00
2023-11-01T11:49:28.940Z,1.00
2023-11-01T11:50:28.944Z,0.90
2023-11-01T11:51:28.874Z,1.10
2023-11-01T11:52:28.908Z,1.10
2023-11-01T11:53:28.929Z,1.10
2023-11-01T11:54:28.841Z,1.10
2023-11-01T11:55:28.845Z,1.10
2023-11-01T11:56:28.852Z,0.90
2023-11-01T11:57:28.864Z,1.10
2023-11-01T11:58:29.680Z,1.10
2023-11-01T11:59:28.866Z,1.20
2023-11-01T12:00:28.794Z,1.00
2023-11-01T12:01:28.927Z,1.00
2023-11-01T12:02:28.789Z,1.10
2023-11-01T12:03:29.413Z,1.10
2023-11-01T12:04:28.785Z,1.00
2023-11-01T12:05:28.776Z,1.10
2023-11-01T12:06:28.733Z,1.20
2023-11-01T12:07:28.747Z,1.10
2023-11-01T12:08:28.720Z,1.20
2023-11-01T12:09:28.712Z,1.30
2023-11-01T12:10:28.702Z,1.30
2023-11-01T12:11:28.865Z,1.10
2023-11-01T12:12:28.660Z,1.10
2023-11-01T12:13:28.673Z,1.00
2023-11-01T12:14:28.676Z,1.00
2023-11-01T12:15:28.631Z,1.20
2023-11-01T12:16:28.688Z,1.00
2023-11-01T12:17:28.780Z,1.10
2023-11-01T12:18:28.662Z,1.20
2023-11-01T12:19:28.640Z,1.10
2023-11-01T12:20:28.645Z,0.90
2023-11-01T12:21:28.564Z,1.00
2023-11-01T12:22:28.571Z,1.00
2023-11-01T12:23:28.598Z,0.90
2023-11-01T12:24:28.587Z,1.20
2023-11-01T12:25:28.512Z,1.20
2023-11-01T12:26:28.572Z,1.00
2023-11-01T12:27:28.496Z,1.00
2023-11-01T12:28:28.486Z,1.00
2023-11-01T12:29:28.557Z,1.10
2023-11-01T12:30:28.482Z,1.20
2023-11-01T12:31:28.490Z,1.10
2023-11-01T12:32:28.691Z,1.10
2023-11-01T12:33:28.542Z,1.10
2023-11-01T12:34:28.485Z,1.10
2023-11-01T12:35:28.472Z,1.10
2023-11-01T12:36:28.411Z,1.10
2023-11-01T12:37:28.391Z,1.10
2023-11-01T12:38:28.444Z,1.00
2023-11-01T12:39:28.395Z,1.10
2023-11-01T12:40:28.370Z,1.00
2023-11-01T12:41:28.371Z,1.00
2023-11-01T12:42:28.339Z,1.10
2023-11-01T12:43:28.373Z,1.20
2023-11-01T12:44:28.492Z,1.20
2023-11-01T12:45:28.332Z,1.10
2023-11-01T12:46:28.375Z,1.00
2023-11-01T12:47:28.412Z,1.10
2023-11-01T12:48:28.352Z,1.10
2023-11-01T12:49:28.263Z,1.00
2023-11-01T12:50:28.303Z,1.10
2023-11-01T12:51:28.262Z,1.20
2023-11-01T12:52:28.236Z,1.30
2023-11-01T12:53:28.230Z,1.10
2023-11-01T12:54:28.215Z,1.00
2023-11-01T12:55:28.227Z,1.10
2023-11-01T12:56:28.226Z,1.10
2023-11-01T12:57:28.180Z,1.10
2023-11-01T12:58:28.214Z,1.00
2023-11-01T12:59:28.171Z,1.20
2023-11-01T13:00:28.182Z,1.10
2023-11-01T13:01:28.204Z,1.20
2023-11-01T13:02:28.136Z,1.60
2023-11-01T13:03:28.312Z,1.20
2023-11-01T13:04:28.162Z,1.20
2023-11-01T13:05:28.101Z,1.30
2023-11-01T13:06:28.136Z,1.20
2023-11-01T13:07:28.099Z,1.10
2023-11-01T13:08:28.078Z,1.10
2023-11-01T13:09:28.071Z,1.10
2023-11-01T13:10:28.046Z,1.20
2023-11-01T13:11:28.037Z,1.10
2023-11-01T13:12:28.055Z,1.30
2023-11-01T13:13:28.022Z,1.10
2023-11-01T13:14:28.068Z,1.20
2023-11-01T13:15:28.187Z,1.20
2023-11-01T13:16:27.991Z,1.30
2023-11-01T13:17:28.037Z,1.20
2023-11-01T13:18:28.013Z,1.10